Time;durP1;ratioP1;P1;durP2;ratioP2;P2;SDS_P1;SDS_P2;PMS_P1;PMS_P2;Temp;Humidity;BMP_temperature;BMP_pressure;BME280_temperature;BME280_humidity;BME280_pressure;Samples;Min_cycle;Max_cycle;Signal;HPM_P1;HPM_P2
2022/08/28 00:01:00;;;;;;;;;;;;;;;24.92;51.23;98356.16;5092705;28;19919;-48
2022/08/28 00:03:26;;;;;;;;;;;;;;;24.96;50.98;98356.34;5091420;28;19918;-48
2022/08/28 00:05:52;;;;;;;;;;;;;;;24.90;51.01;98366.41;5091317;28;19972;-48
2022/08/28 00:08:17;;;;;;;;;;;;;;;24.90;51.16;98366.41;5074554;28;19916;-48
2022/08/28 00:10:43;;;;;;;;;;;;;;;24.85;51.41;98366.53;5092745;28;19911;-47
2022/08/28 00:13:14;;;;;;;;;;;;;;;24.87;51.15;98363.53;5092599;28;20377;-48
2022/08/28 00:15:39;;;;;;;;;;;;;;;24.87;51.10;98364.34;5092581;28;19912;-48
2022/08/28 00:18:06;;;;;;;;;;;;;;;24.86;51.28;98365.44;5091104;28;19935;-47
2022/08/28 00:20:32;;;;;;;;;;;;;;;24.90;51.11;98363.72;5091152;28;20163;-48
2022/08/28 00:22:58;;;;;;;;;;;;;;;24.89;50.89;98364.84;5091065;28;19935;-48
2022/08/28 00:25:25;;;;;;;;;;;;;;;24.81;50.97;98372.78;5091049;28;19912;-48
2022/08/28 00:27:54;;;;;;;;;;;;;;;24.74;50.88;98372.44;5092383;28;20399;-47
2022/08/28 00:30:24;;;;;;;;;;;;;;;24.67;51.18;98378.19;5091935;28;19942;-48
2022/08/28 00:32:50;;;;;;;;;;;;;;;24.68;51.25;98377.09;5092267;28;20035;-48
2022/08/28 00:35:17;;;;;;;;;;;;;;;24.70;51.46;98372.22;5092373;28;19947;-50
2022/08/28 00:37:43;;;;;;;;;;;;;;;24.69;51.35;98376.81;5092273;28;20360;-49
2022/08/28 00:40:09;;;;;;;;;;;;;;;24.66;51.30;98376.59;5090943;28;19955;-50
2022/08/28 00:42:37;;;;;;;;;;;;;;;24.67;51.29;98383.53;5092200;28;19923;-50
2022/08/28 00:45:03;;;;;;;;;;;;;;;24.68;51.51;98390.53;5092206;28;20381;-49
2022/08/28 00:47:29;;;;;;;;;;;;;;;24.70;51.55;98386.44;5092219;28;19916;-49
2022/08/28 00:49:54;;;;;;;;;;;;;;;24.78;51.47;98384.94;5092098;28;20281;-50
2022/08/28 00:52:22;;;;;;;;;;;;;;;24.80;51.13;98390.00;5092090;28;19961;-49
2022/08/28 00:54:56;;;;;;;;;;;;;;;24.75;51.21;98396.28;5093039;28;19919;-50
2022/08/28 00:57:24;;;;;;;;;;;;;;;24.70;51.18;98409.81;5096262;28;19912;-50
2022/08/28 00:59:50;;;;;;;;;;;;;;;24.51;51.16;98417.97;5094825;28;20028;-49
2022/08/28 01:02:16;;;;;;;;;;;;;;;24.25;51.37;98412.28;5096127;28;20287;-48
2022/08/28 01:04:41;;;;;;;;;;;;;;;24.01;51.62;98415.91;5096280;28;19916;-50
2022/08/28 01:07:08;;;;;;;;;;;;;;;23.96;52.02;98401.78;5094697;28;19919;-49
2022/08/28 01:09:36;;;;;;;;;;;;;;;24.01;52.73;98407.88;5095920;28;19919;-49
2022/08/28 01:12:07;;;;;;;;;;;;;;;24.16;53.20;98411.34;5095895;28;19922;-50
2022/08/28 01:14:35;;;;;;;;;;;;;;;24.28;52.87;98404.41;5096231;28;20297;-50
2022/08/28 01:17:01;;;;;;;;;;;;;;;24.35;52.87;98413.94;5096108;28;19919;-49
2022/08/28 01:19:36;;;;;;;;;;;;;;;24.43;52.86;98408.69;5095752;28;20244;-50
2022/08/28 01:22:02;;;;;;;;;;;;;;;24.58;52.35;98420.25;5096103;28;19988;-49
2022/08/28 01:24:29;;;;;;;;;;;;;;;24.59;52.08;98419.97;5094355;28;19912;-49
2022/08/28 01:26:54;;;;;;;;;;;;;;;24.54;52.17;98412.00;5095845;28;19912;-50
2022/08/28 01:29:21;;;;;;;;;;;;;;;24.53;52.00;98421.16;5095306;28;20305;-48
2022/08/28 01:31:47;;;;;;;;;;;;;;;24.45;52.19;98409.19;5094314;28;19999;-49
2022/08/28 01:34:13;;;;;;;;;;;;;;;24.40;52.26;98408.50;5095505;28;19916;-49
2022/08/28 01:36:39;;;;;;;;;;;;;;;24.35;52.68;98413.94;5094149;28;19912;-49
2022/08/28 01:39:11;;;;;;;;;;;;;;;24.33;52.86;98412.38;5094151;28;19919;-49
2022/08/28 01:41:45;;;;;;;;;;;;;;;24.30;52.61;98401.44;5095393;28;19912;-49
2022/08/28 01:44:10;;;;;;;;;;;;;;;24.15;52.23;98404.38;5095394;28;19912;-49
2022/08/28 01:46:36;;;;;;;;;;;;;;;24.06;53.07;98401.59;5093919;28;19918;-49
2022/08/28 01:49:02;;;;;;;;;;;;;;;24.13;53.72;98396.66;5094063;28;19930;-49
2022/08/28 01:51:28;;;;;;;;;;;;;;;24.22;53.38;98394.06;5095074;28;19915;-49
2022/08/28 01:53:53;;;;;;;;;;;;;;;24.13;53.75;98400.13;5093842;28;19999;-50
2022/08/28 01:56:19;;;;;;;;;;;;;;;24.05;53.18;98397.34;5095123;28;19919;-49
2022/08/28 01:58:46;;;;;;;;;;;;;;;24.02;53.55;98398.72;5093747;28;19919;-49
2022/08/28 02:01:14;;;;;;;;;;;;;;;24.00;53.15;98398.22;5095026;28;19916;-50
2022/08/28 02:03:41;;;;;;;;;;;;;;;23.96;53.01;98396.44;5093616;28;19919;-49
2022/08/28 02:06:07;;;;;;;;;;;;;;;23.88;53.16;98395.22;5094361;28;19919;-50
2022/08/28 02:08:32;;;;;;;;;;;;;;;23.80;53.40;98399.38;5093318;28;20308;-49
2022/08/28 02:10:58;;;;;;;;;;;;;;;23.71;53.46;98407.25;5094726;28;19919;-49
2022/08/28 02:13:23;;;;;;;;;;;;;;;23.71;53.73;98407.25;5093475;28;20317;-49
2022/08/28 02:15:50;;;;;;;;;;;;;;;23.69;53.40;98409.44;5093374;28;19912;-49
2022/08/28 02:18:22;;;;;;;;;;;;;;;23.59;53.73;98409.59;5094704;28;19919;-50
2022/08/28 02:20:47;;;;;;;;;;;;;;;23.47;53.78;98414.63;5094581;28;19912;-49
2022/08/28 02:23:15;;;;;;;;;;;;;;;23.40;53.91;98414.19;5094572;28;20392;-49
2022/08/28 02:25:41;;;;;;;;;;;;;;;23.31;53.72;98420.19;5093192;28;19912;-49
2022/08/28 02:28:06;;;;;;;;;;;;;;;23.27;53.96;98421.09;5094441;28;20001;-49
2022/08/28 02:30:32;;;;;;;;;;;;;;;23.25;54.45;98421.38;5092843;28;20322;-49
2022/08/28 02:32:57;;;;;;;;;;;;;;;23.25;54.93;98415.22;5093100;28;19957;-50
2022/08/28 02:35:23;;;;;;;;;;;;;;;23.36;54.75;98430.03;5094324;28;19916;-49
2022/08/28 02:37:48;;;;;;;;;;;;;;;23.45;54.95;98422.94;5092997;28;20304;-49
2022/08/28 02:40:15;;;;;;;;;;;;;;;23.52;54.68;98422.56;5092916;28;19912;-50
2022/08/28 02:42:41;;;;;;;;;;;;;;;23.49;54.55;98417.81;5092924;28;20266;-49
2022/08/28 02:45:10;;;;;;;;;;;;;;;23.50;54.80;98424.75;5092867;28;19912;-49
2022/08/28 02:47:36;;;;;;;;;;;;;;;23.52;54.83;98425.25;5094131;28;19916;-49
2022/08/28 02:50:02;;;;;;;;;;;;;;;23.52;54.56;98425.25;5093937;28;19916;-49
2022/08/28 02:52:28;;;;;;;;;;;;;;;23.45;54.63;98424.84;5093036;28;19912;-50
2022/08/28 02:54:56;;;;;;;;;;;;;;;23.45;54.41;98422.16;5093934;28;20408;-49
2022/08/28 02:57:21;;;;;;;;;;;;;;;23.36;54.62;98423.88;5093882;28;19916;-48
2022/08/28 02:59:47;;;;;;;;;;;;;;;23.24;55.14;98419.78;5093790;28;20450;-49
2022/08/28 03:02:12;;;;;;;;;;;;;;;23.28;55.00;98418.13;5094112;28;20006;-50
2022/08/28 03:04:38;;;;;;;;;;;;;;;23.27;55.23;98418.41;5093813;28;20274;-49
2022/08/28 03:07:06;;;;;;;;;;;;;;;23.30;55.28;98423.16;5092386;28;19951;-49
2022/08/28 03:09:31;;;;;;;;;;;;;;;23.20;54.67;98415.28;5093601;28;19951;-49
2022/08/28 03:11:57;;;;;;;;;;;;;;;22.92;54.92;98415.91;5092369;28;20469;-48
2022/08/28 03:14:23;;;;;;;;;;;;;;;22.69;55.18;98420.19;5092260;28;20382;-49
2022/08/28 03:16:48;;;;;;;;;;;;;;;22.42;55.31;98420.78;5093471;28;20336;-49
2022/08/28 03:19:15;;;;;;;;;;;;;;;22.24;55.45;98421.53;5091110;28;19947;-50
2022/08/28 03:21:40;;;;;;;;;;;;;;;22.09;55.97;98422.44;5093408;28;20364;-49
2022/08/28 03:24:06;;;;;;;;;;;;;;;21.96;55.93;98421.22;5092046;28;19915;-49
2022/08/28 03:26:31;;;;;;;;;;;;;;;21.91;56.33;98419.41;5093315;28;20002;-49
2022/08/28 03:28:57;;;;;;;;;;;;;;;21.80;56.46;98415.22;5093093;28;20384;-49
2022/08/28 03:31:26;;;;;;;;;;;;;;;21.64;56.58;98416.41;5093291;28;20407;-49
2022/08/28 03:33:52;;;;;;;;;;;;;;;21.49;57.14;98420.00;5093243;28;20003;-49
2022/08/28 03:36:22;;;;;;;;;;;;;;;21.41;57.12;98420.53;5093518;28;20011;-49
2022/08/28 03:38:49;;;;;;;;;;;;;;;21.33;57.40;98424.63;5091909;28;19962;-49
2022/08/28 03:41:16;;;;;;;;;;;;;;;21.25;57.38;98423.34;5093084;28;19980;-49
2022/08/28 03:43:41;;;;;;;;;;;;;;;21.18;57.39;98430.84;5091744;28;20373;-49
2022/08/28 03:46:08;;;;;;;;;;;;;;;21.12;57.45;98429.28;5093067;28;19959;-49
2022/08/28 03:48:35;;;;;;;;;;;;;;;21.05;57.77;98437.59;5091641;28;19955;-49
2022/08/28 03:51:04;;;;;;;;;;;;;;;20.98;58.05;98437.09;5092909;28;19912;-49
2022/08/28 03:53:30;;;;;;;;;;;;;;;20.92;58.01;98438.19;5091635;28;19912;-49
2022/08/28 03:55:56;;;;;;;;;;;;;;;20.91;58.33;98433.94;5091581;28;20282;-49
2022/08/28 03:58:22;;;;;;;;;;;;;;;20.92;58.50;98438.97;5091525;28;19915;-49
2022/08/28 04:00:49;;;;;;;;;;;;;;;20.92;58.57;98441.63;5091481;28;20065;-49
2022/08/28 04:03:14;;;;;;;;;;;;;;;20.82;59.56;98438.22;5092772;28;20301;-49
2022/08/28 04:05:41;;;;;;;;;;;;;;;20.60;60.57;98444.69;5092714;28;19965;-48
2022/08/28 04:08:06;;;;;;;;;;;;;;;20.39;60.99;98443.94;5091388;28;20016;-49
2022/08/28 04:10:32;;;;;;;;;;;;;;;20.20;61.55;98445.56;5092520;28;20392;-49
2022/08/28 04:13:02;;;;;;;;;;;;;;;20.08;61.89;98443.19;5092650;28;20001;-49
2022/08/28 04:15:27;;;;;;;;;;;;;;;20.05;61.81;98438.41;5092512;28;19919;-49
2022/08/28 04:17:53;;;;;;;;;;;;;;;19.99;62.08;98442.94;5092497;28;19911;-49
2022/08/28 04:20:19;;;;;;;;;;;;;;;20.00;61.64;98449.88;5092440;28;20132;-49
2022/08/28 04:22:46;;;;;;;;;;;;;;;19.98;61.60;98443.19;5092449;28;19912;-49
2022/08/28 04:25:11;;;;;;;;;;;;;;;19.98;61.41;98445.84;5091064;28;19943;-49
2022/08/28 04:27:37;;;;;;;;;;;;;;;19.95;61.33;98455.97;5092360;28;19951;-49
2022/08/28 04:30:03;;;;;;;;;;;;;;;19.98;61.68;98448.53;5091827;28;19916;-49
2022/08/28 04:32:28;;;;;;;;;;;;;;;20.01;61.38;98445.34;5090987;28;19912;-49
2022/08/28 04:34:54;;;;;;;;;;;;;;;19.99;61.40;98453.59;5091021;28;20408;-48
2022/08/28 04:37:19;;;;;;;;;;;;;;;19.99;61.36;98450.13;5092234;28;19939;-49
2022/08/28 04:39:45;;;;;;;;;;;;;;;20.01;61.56;98450.66;5092251;28;19912;-49
2022/08/28 04:42:10;;;;;;;;;;;;;;;20.02;61.37;98452.25;5090952;28;19919;-50
2022/08/28 04:44:35;;;;;;;;;;;;;;;20.04;61.70;98452.78;5092251;28;19935;-49
2022/08/28 04:47:01;;;;;;;;;;;;;;;20.06;62.31;98456.78;5092186;28;20371;-49
2022/08/28 04:49:26;;;;;;;;;;;;;;;19.89;62.59;98464.25;5090760;28;19916;-49
2022/08/28 04:51:52;;;;;;;;;;;;;;;19.75;63.65;98464.78;5092128;28;20301;-49
2022/08/28 04:54:18;;;;;;;;;;;;;;;19.56;64.51;98461.81;5092179;28;20001;-49
2022/08/28 04:56:44;;;;;;;;;;;;;;;19.40;65.00;98464.69;5092096;28;19912;-48
2022/08/28 04:59:10;;;;;;;;;;;;;;;19.31;65.64;98459.09;5092162;28;19918;-49
2022/08/28 05:01:39;;;;;;;;;;;;;;;19.23;65.96;98465.72;5090761;28;19916;-49
2022/08/28 05:04:05;;;;;;;;;;;;;;;19.20;65.97;98468.13;5092055;28;20002;-49
2022/08/28 05:06:31;;;;;;;;;;;;;;;19.19;66.29;98463.84;5090656;28;19951;-49
2022/08/28 05:08:58;;;;;;;;;;;;;;;19.10;66.22;98468.88;5092032;28;20391;-49
2022/08/28 05:11:25;;;;;;;;;;;;;;;19.01;66.72;98470.44;5090605;28;19912;-49
2022/08/28 05:13:51;;;;;;;;;;;;;;;18.96;67.18;98471.22;5091995;28;19918;-49
2022/08/28 05:16:17;;;;;;;;;;;;;;;19.00;67.32;98479.50;5092164;28;19912;-49
2022/08/28 05:18:43;;;;;;;;;;;;;;;19.25;66.91;98482.22;5091850;28;20408;-49
2022/08/28 05:21:19;;;;;;;;;;;;;;;19.62;66.00;98477.78;5091947;28;19965;-49
2022/08/28 05:23:45;;;;;;;;;;;;;;;20.06;64.58;98471.97;5091907;28;19912;-49
2022/08/28 05:26:11;;;;;;;;;;;;;;;20.40;63.79;98479.38;5091861;28;19916;-49
2022/08/28 05:28:40;;;;;;;;;;;;;;;20.72;62.36;98487.06;5090519;28;19912;-48
2022/08/28 05:31:10;;;;;;;;;;;;;;;20.79;61.89;98487.59;5090255;28;20405;-49
2022/08/28 05:33:39;;;;;;;;;;;;;;;21.12;61.01;98485.31;5091855;28;20395;-49
2022/08/28 05:36:06;;;;;;;;;;;;;;;21.46;60.13;98488.09;5090431;28;20373;-49
2022/08/28 05:38:33;;;;;;;;;;;;;;;21.84;58.56;98485.72;5090442;28;19912;-49
2022/08/28 05:40:59;;;;;;;;;;;;;;;22.17;57.90;98487.84;5091682;28;19912;-49
2022/08/28 05:43:24;;;;;;;;;;;;;;;22.53;56.49;98491.78;5094977;28;19934;-49
2022/08/28 05:45:57;;;;;;;;;;;;;;;22.94;55.67;98499.38;5095293;28;19923;-49
2022/08/28 05:48:23;;;;;;;;;;;;;;;23.27;54.77;98496.84;5095285;28;20327;-49
2022/08/28 05:50:48;;;;;;;;;;;;;;;23.63;54.35;98492.88;5093894;28;19912;-49
2022/08/28 05:53:16;;;;;;;;;;;;;;;23.97;52.96;98492.66;5095190;28;20270;-49
2022/08/28 05:55:42;;;;;;;;;;;;;;;24.09;52.24;98498.34;5093785;28;19927;-49
2022/08/28 06:00:51;;;;;;;;;;;;;;;24.51;53.12;98493.88;5095407;28;19923;-49
2022/08/28 06:03:17;;;;;;;;;;;;;;;24.98;53.22;98495.69;5094993;28;19912;-49
2022/08/28 06:05:42;;;;;;;;;;;;;;;25.56;52.36;98488.81;5093598;28;19922;-50
2022/08/28 06:08:07;;;;;;;;;;;;;;;26.18;51.26;98497.03;5094900;28;20301;-49
2022/08/28 06:10:35;;;;;;;;;;;;;;;26.94;50.36;98495.31;5094680;28;19962;-48
2022/08/28 06:13:01;;;;;;;;;;;;;;;27.60;47.17;98487.16;5094868;28;19916;-49
2022/08/28 06:15:26;;;;;;;;;;;;;;;28.09;47.12;98499.38;5094615;28;20015;-49
2022/08/28 06:17:52;;;;;;;;;;;;;;;28.73;43.50;98495.03;5094772;28;19923;-49
2022/08/28 06:20:18;;;;;;;;;;;;;;;29.21;42.66;98487.66;5093286;28;20388;-49
2022/08/28 06:22:43;;;;;;;;;;;;;;;29.34;41.53;98488.50;5094644;28;19912;-49
2022/08/28 06:25:13;;;;;;;;;;;;;;;29.54;41.82;98495.03;5094589;28;19958;-49
2022/08/28 06:27:38;;;;;;;;;;;;;;;29.81;40.45;98493.72;5094606;28;19969;-50
2022/08/28 06:30:04;;;;;;;;;;;;;;;29.90;39.69;98482.81;5094216;28;19916;-49
2022/08/28 06:32:30;;;;;;;;;;;;;;;29.91;39.82;98487.09;5094421;28;19978;-49
2022/08/28 06:34:55;;;;;;;;;;;;;;;29.93;39.60;98488.34;5094389;28;20424;-49
2022/08/28 06:37:21;;;;;;;;;;;;;;;29.95;40.04;98488.81;5092963;28;20006;-49
2022/08/28 06:39:46;;;;;;;;;;;;;;;30.07;39.55;98490.75;5093024;28;19912;-49
2022/08/28 06:42:12;;;;;;;;;;;;;;;30.14;39.20;98501.03;5092887;28;20385;-49
2022/08/28 06:44:38;;;;;;;;;;;;;;;30.25;39.13;98500.28;5092891;28;20024;-49
2022/08/28 06:47:03;;;;;;;;;;;;;;;30.61;38.68;98495.28;5094191;28;20049;-50
2022/08/28 06:49:29;;;;;;;;;;;;;;;30.90;38.56;98494.28;5094039;28;20018;-49
2022/08/28 06:51:55;;;;;;;;;;;;;;;30.99;37.28;98496.88;5094020;28;19912;-49
2022/08/28 06:54:21;;;;;;;;;;;;;;;30.39;37.84;98497.28;5093752;28;19938;-48
2022/08/28 06:56:47;;;;;;;;;;;;;;;30.88;38.15;98501.13;5094247;28;19911;-48
2022/08/28 06:59:12;;;;;;;;;;;;;;;31.29;36.31;98500.09;5093893;28;20073;-49
2022/08/28 07:01:41;;;;;;;;;;;;;;;31.35;35.79;98498.72;5092500;28;19923;-48
2022/08/28 07:04:08;;;;;;;;;;;;;;;31.87;35.98;98499.00;5093823;28;19911;-50
2022/08/28 07:06:35;;;;;;;;;;;;;;;32.77;34.85;98500.16;5092406;28;19912;-49
2022/08/28 07:09:01;;;;;;;;;;;;;;;32.95;33.25;98503.31;5093684;28;19916;-50
2022/08/28 07:11:29;;;;;;;;;;;;;;;33.22;33.41;98503.53;5093558;28;19916;-50
2022/08/28 07:13:55;;;;;;;;;;;;;;;33.87;33.12;98500.22;5093661;28;20460;-49
2022/08/28 07:16:21;;;;;;;;;;;;;;;34.29;32.23;98501.34;5093529;28;19915;-49
2022/08/28 07:18:47;;;;;;;;;;;;;;;34.85;31.93;98503.44;5093523;28;19912;-49
2022/08/28 07:21:12;;;;;;;;;;;;;;;35.39;30.38;98506.94;5092170;28;20385;-49
2022/08/28 07:23:38;;;;;;;;;;;;;;;35.70;29.59;98499.53;5092180;28;20399;-50
2022/08/28 07:26:05;;;;;;;;;;;;;;;36.02;29.14;98499.06;5093380;28;19912;-50
2022/08/28 07:28:31;;;;;;;;;;;;;;;36.10;29.24;98504.25;5093376;28;20014;-50
2022/08/28 07:30:58;;;;;;;;;;;;;;;36.03;28.82;98503.41;5092992;28;20418;-49
2022/08/28 07:33:24;;;;;;;;;;;;;;;36.07;28.97;98507.72;5093085;28;19984;-50
2022/08/28 07:35:49;;;;;;;;;;;;;;;36.62;28.77;98511.75;5091914;28;20029;-50
2022/08/28 07:38:15;;;;;;;;;;;;;;;37.39;28.22;98512.66;5091882;28;19912;-50
2022/08/28 07:40:40;;;;;;;;;;;;;;;37.96;27.98;98521.06;5091831;28;19969;-50
2022/08/28 07:46:02;;;;;;;;;;;;;;;37.97;26.39;98524.59;5084193;28;20003;-50
2022/08/28 07:48:28;;;;;;;;;;;;;;;38.27;25.96;98518.78;5093002;28;20301;-49
2022/08/28 07:50:53;;;;;;;;;;;;;;;38.49;26.22;98518.81;5092874;28;19912;-51
2022/08/28 07:53:19;;;;;;;;;;;;;;;39.04;25.91;98512.13;5092926;28;20379;-50
2022/08/28 07:55:47;;;;;;;;;;;;;;;39.53;25.89;98519.44;5092838;28;19912;-49
2022/08/28 07:58:12;;;;;;;;;;;;;;;39.13;24.61;98513.28;5092851;28;20010;-50
2022/08/28 08:00:38;;;;;;;;;;;;;;;38.21;25.54;98514.88;5091493;28;20353;-50
2022/08/28 08:03:03;;;;;;;;;;;;;;;38.14;26.17;98504.69;5074615;28;19912;-49
2022/08/28 08:05:29;;;;;;;;;;;;;;;38.49;25.23;98508.63;5092319;28;19915;-49
2022/08/28 08:07:54;;;;;;;;;;;;;;;38.09;25.85;98507.03;5092749;28;19919;-48
2022/08/28 08:10:21;;;;;;;;;;;;;;;38.27;26.24;98513.31;5092589;28;19912;-49
2022/08/28 08:12:47;;;;;;;;;;;;;;;38.92;26.07;98508.59;5092605;28;19912;-49
2022/08/28 08:15:13;;;;;;;;;;;;;;;38.90;25.61;98515.69;5092814;28;20006;-49
2022/08/28 08:17:38;;;;;;;;;;;;;;;38.90;25.08;98521.16;5092480;28;19918;-49
2022/08/28 08:20:05;;;;;;;;;;;;;;;38.67;25.79;98518.84;5092432;28;19972;-49
2022/08/28 08:22:30;;;;;;;;;;;;;;;39.34;25.55;98517.13;5092440;28;19923;-49
2022/08/28 08:24:56;;;;;;;;;;;;;;;39.38;24.82;98519.88;5092452;28;20293;-50
2022/08/28 08:27:21;;;;;;;;;;;;;;;39.63;24.82;98519.81;5092426;28;20374;-49
2022/08/28 08:29:47;;;;;;;;;;;;;;;39.82;24.18;98524.00;5090779;28;20240;-49
2022/08/28 08:32:14;;;;;;;;;;;;;;;39.66;24.57;98527.22;5091335;28;20335;-49
2022/08/28 08:34:46;;;;;;;;;;;;;;;39.49;24.32;98529.66;5092331;28;19912;-49
2022/08/28 08:37:12;;;;;;;;;;;;;;;39.45;24.63;98531.66;5092280;28;20145;-49
2022/08/28 08:39:38;;;;;;;;;;;;;;;39.24;24.52;98527.00;5092362;28;20335;-49
2022/08/28 08:42:07;;;;;;;;;;;;;;;39.02;24.74;98537.25;5092254;28;19922;-48
2022/08/28 08:44:36;;;;;;;;;;;;;;;39.00;24.92;98534.13;5092301;28;20005;-49
2022/08/28 08:47:18;;;;;;;;;;;;;;;39.12;25.00;98533.69;5090954;28;19978;-49
2022/08/28 08:49:49;;;;;;;;;;;;;;;39.30;25.13;98539.13;5092190;28;19918;-51
2022/08/28 08:52:20;;;;;;;;;;;;;;;39.11;25.23;98545.84;5092130;28;19958;-50
2022/08/28 08:54:59;;;;;;;;;;;;;;;38.57;25.76;98536.84;5092199;28;19916;-49
2022/08/28 08:57:26;;;;;;;;;;;;;;;38.84;25.77;98539.19;5092412;28;20297;-50
2022/08/28 08:59:53;;;;;;;;;;;;;;;39.51;25.34;98532.78;5090863;28;20290;-50
2022/08/28 09:02:23;;;;;;;;;;;;;;;40.03;25.05;98534.91;5090700;28;19916;-50
2022/08/28 09:04:52;;;;;;;;;;;;;;;40.92;24.38;98530.69;5092186;28;19965;-51
2022/08/28 09:07:17;;;;;;;;;;;;;;;41.76;23.43;98533.31;5092048;28;19959;-51
2022/08/28 09:09:48;;;;;;;;;;;;;;;42.36;22.42;98531.66;5092016;28;20400;-51
2022/08/28 09:12:18;;;;;;;;;;;;;;;42.42;21.64;98524.47;5092008;28;19962;-50
2022/08/28 09:14:52;;;;;;;;;;;;;;;42.29;21.86;98535.31;5092031;28;19947;-50
2022/08/28 09:17:20;;;;;;;;;;;;;;;42.72;21.65;98527.53;5095354;28;19918;-49
2022/08/28 09:19:46;;;;;;;;;;;;;;;43.26;21.23;98530.09;5095887;28;19912;-48
2022/08/28 09:22:11;;;;;;;;;;;;;;;43.61;20.87;98527.84;5095779;28;20397;-48
2022/08/28 09:24:38;;;;;;;;;;;;;;;43.53;20.27;98526.41;5096173;28;20462;-49
2022/08/28 09:27:03;;;;;;;;;;;;;;;43.41;20.47;98527.84;5095676;28;19916;-49
2022/08/28 09:29:42;;;;;;;;;;;;;;;42.71;20.16;98524.00;5095465;28;20301;-48
2022/08/28 09:32:20;;;;;;;;;;;;;;;42.45;21.17;98539.44;5095588;28;19912;-49
2022/08/28 09:35:06;;;;;;;;;;;;;;;42.95;20.58;98532.28;5095592;28;19912;-48
2022/08/28 09:37:32;;;;;;;;;;;;;;;42.91;21.27;98532.34;5095103;28;19916;-51
2022/08/28 09:40:13;;;;;;;;;;;;;;;43.15;20.93;98535.06;5095418;28;19919;-48
2022/08/28 09:46:00;;;;;;;;;;;;;;;43.90;19.87;98530.75;5084491;28;20328;-48
2022/08/28 09:48:38;;;;;;;;;;;;;;;44.33;19.68;98526.22;5095313;28;20002;-49
2022/08/28 09:51:08;;;;;;;;;;;;;;;44.26;19.36;98527.97;5095149;28;19920;-50
2022/08/28 09:53:36;;;;;;;;;;;;;;;44.02;19.55;98526.53;5095200;28;19916;-50
2022/08/28 09:56:04;;;;;;;;;;;;;;;43.32;19.96;98533.16;5095149;28;19958;-50
2022/08/28 09:58:33;;;;;;;;;;;;;;;43.01;20.32;98533.34;5095129;28;19912;-51
2022/08/28 10:01:10;;;;;;;;;;;;;;;42.81;20.09;98536.06;5095023;28;19912;-54
2022/08/28 10:03:47;;;;;;;;;;;;;;;43.37;20.48;98529.91;5093739;28;19927;-54
2022/08/28 10:06:20;;;;;;;;;;;;;;;44.31;19.94;98534.19;5094959;28;19916;-52
2022/08/28 10:08:45;;;;;;;;;;;;;;;43.91;19.07;98534.28;5095009;28;19955;-53
2022/08/28 10:11:34;;;;;;;;;;;;;;;43.02;19.92;98543.97;5093489;28;19958;-52
2022/08/28 10:14:05;;;;;;;;;;;;;;;43.51;20.17;98537.91;5074952;28;19973;-52
2022/08/28 10:16:43;;;;;;;;;;;;;;;43.82;19.87;98523.84;5094801;28;20439;-52
2022/08/28 10:19:11;;;;;;;;;;;;;;;44.10;19.54;98525.19;5094710;28;19912;-52
2022/08/28 10:21:37;;;;;;;;;;;;;;;44.35;19.28;98529.34;5094717;28;19915;-53
2022/08/28 10:24:08;;;;;;;;;;;;;;;44.72;18.92;98525.25;5094616;28;19916;-51
2022/08/28 10:26:55;;;;;;;;;;;;;;;44.36;18.76;98526.16;5094588;28;19916;-53
2022/08/28 10:29:39;;;;;;;;;;;;;;;43.38;19.27;98523.19;5093843;28;19923;-53
2022/08/28 10:32:05;;;;;;;;;;;;;;;42.77;19.88;98521.53;5094480;28;19912;-52
2022/08/28 10:34:49;;;;;;;;;;;;;;;42.79;20.01;98517.16;5094494;28;19919;-53
2022/08/28 10:37:32;;;;;;;;;;;;;;;42.69;20.09;98515.38;5094317;28;19915;-53
2022/08/28 10:40:03;;;;;;;;;;;;;;;41.99;20.23;98513.28;5094324;28;19919;-51
2022/08/28 10:42:32;;;;;;;;;;;;;;;42.21;20.27;98516.53;5093030;28;19981;-52
2022/08/28 10:45:03;;;;;;;;;;;;;;;42.30;20.21;98512.06;5094267;28;19919;-53
2022/08/28 10:47:34;;;;;;;;;;;;;;;41.83;20.42;98520.19;5094342;28;19912;-53
2022/08/28 10:50:04;;;;;;;;;;;;;;;42.01;20.77;98519.16;5093961;28;19912;-52
2022/08/28 10:52:32;;;;;;;;;;;;;;;42.61;20.90;98514.72;5092783;28;19919;-53
2022/08/28 10:55:06;;;;;;;;;;;;;;;43.08;20.25;98511.91;5094070;28;19919;-53
2022/08/28 10:57:47;;;;;;;;;;;;;;;43.75;19.82;98507.41;5093979;28;20335;-52
2022/08/28 11:00:15;;;;;;;;;;;;;;;44.07;19.46;98504.72;5093944;28;19920;-53
2022/08/28 11:02:50;;;;;;;;;;;;;;;44.14;19.05;98512.06;5092581;28;20457;-53
2022/08/28 11:05:23;;;;;;;;;;;;;;;43.73;19.55;98507.84;5093870;28;19912;-51
2022/08/28 11:07:51;;;;;;;;;;;;;;;43.85;19.43;98501.66;5093785;28;19911;-51
2022/08/28 11:10:29;;;;;;;;;;;;;;;44.08;18.76;98497.97;5092314;28;20518;-53
2022/08/28 11:12:54;;;;;;;;;;;;;;;43.81;19.10;98498.19;5093668;28;19963;-51
2022/08/28 11:15:26;;;;;;;;;;;;;;;43.19;19.31;98500.63;5093606;28;20393;-50
2022/08/28 11:17:53;;;;;;;;;;;;;;;42.85;20.08;98501.69;5093600;28;19912;-51
2022/08/28 11:20:27;;;;;;;;;;;;;;;43.01;19.91;98500.22;5093501;28;20013;-51
2022/08/28 11:22:53;;;;;;;;;;;;;;;43.05;19.59;98500.94;5075520;28;19969;-50
2022/08/28 11:25:42;;;;;;;;;;;;;;;43.09;19.39;98491.34;5092179;28;19954;-51
2022/08/28 11:28:14;;;;;;;;;;;;;;;42.50;20.04;98497.53;5092146;28;19912;-51
2022/08/28 11:30:40;;;;;;;;;;;;;;;42.58;19.79;98490.72;5093075;28;19916;-51
2022/08/28 11:33:07;;;;;;;;;;;;;;;42.29;19.71;98507.72;5091985;28;20011;-52
2022/08/28 11:35:41;;;;;;;;;;;;;;;42.30;20.18;98503.00;5093248;28;20309;-52
2022/08/28 11:38:07;;;;;;;;;;;;;;;42.67;20.04;98496.47;5093185;28;20010;-51
2022/08/28 11:40:51;;;;;;;;;;;;;;;43.06;19.60;98494.97;5090926;28;19958;-53
2022/08/28 11:43:17;;;;;;;;;;;;;;;43.09;19.84;98496.09;5093104;28;20453;-53
2022/08/28 11:45:45;;;;;;;;;;;;;;;42.80;19.42;98493.06;5093012;28;19916;-53
2022/08/28 11:48:31;;;;;;;;;;;;;;;42.74;20.02;98480.97;5093110;28;19923;-52
2022/08/28 11:50:56;;;;;;;;;;;;;;;43.13;19.19;98483.00;5092675;28;19912;-53
2022/08/28 11:53:25;;;;;;;;;;;;;;;43.19;19.39;98483.28;5092971;28;19927;-52
2022/08/28 11:56:05;;;;;;;;;;;;;;;43.21;19.16;98486.41;5091606;28;19998;-52
2022/08/28 11:58:40;;;;;;;;;;;;;;;43.14;19.10;98481.00;5093139;28;20271;-51
2022/08/28 12:01:06;;;;;;;;;;;;;;;42.96;19.48;98475.84;5092818;28;19916;-52
2022/08/28 12:03:50;;;;;;;;;;;;;;;42.62;19.95;98483.16;5091477;28;19919;-51
2022/08/28 12:06:36;;;;;;;;;;;;;;;42.86;19.52;98472.88;5092737;28;19912;-52
2022/08/28 12:09:02;;;;;;;;;;;;;;;42.99;19.42;98473.03;5091217;28;19919;-51
2022/08/28 12:11:40;;;;;;;;;;;;;;;43.22;19.04;98474.13;5092585;28;20309;-51
2022/08/28 12:14:06;;;;;;;;;;;;;;;43.54;18.81;98462.41;5092609;28;19912;-53
2022/08/28 12:16:54;;;;;;;;;;;;;;;43.01;18.84;98469.84;5092548;28;19915;-52
2022/08/28 12:19:37;;;;;;;;;;;;;;;42.38;19.58;98468.56;5092563;28;19912;-52
2022/08/28 12:22:04;;;;;;;;;;;;;;;42.36;19.94;98476.50;5092505;28;20304;-51
2022/08/28 12:24:30;;;;;;;;;;;;;;;42.74;19.64;98464.41;5092468;28;20315;-52
2022/08/28 12:26:55;;;;;;;;;;;;;;;42.52;19.59;98462.03;5091094;28;19912;-52
2022/08/28 12:29:29;;;;;;;;;;;;;;;42.22;19.95;98460.97;5092210;28;19976;-52
2022/08/28 12:32:15;;;;;;;;;;;;;;;41.91;19.57;98460.25;5090950;28;19912;-51
2022/08/28 12:35:02;;;;;;;;;;;;;;;41.86;19.98;98458.75;5092435;28;19937;-51
2022/08/28 12:37:27;;;;;;;;;;;;;;;41.90;19.99;98456.72;5091184;28;19919;-52
2022/08/28 12:39:54;;;;;;;;;;;;;;;42.13;19.25;98462.69;5092282;28;20293;-50
2022/08/28 12:42:23;;;;;;;;;;;;;;;42.39;19.60;98456.31;5090915;28;19916;-52
2022/08/28 12:44:48;;;;;;;;;;;;;;;42.27;19.57;98454.94;5092223;28;20404;-54
2022/08/28 12:47:16;;;;;;;;;;;;;;;41.85;19.83;98450.88;5090934;28;19915;-51
2022/08/28 12:49:41;;;;;;;;;;;;;;;41.60;19.42;98448.50;5092103;28;19916;-51
2022/08/28 12:52:12;;;;;;;;;;;;;;;40.66;20.26;98452.28;5095410;28;19920;-53
2022/08/28 12:54:38;;;;;;;;;;;;;;;40.56;20.68;98439.44;5096340;28;19912;-51
2022/08/28 12:57:05;;;;;;;;;;;;;;;40.65;20.75;98433.44;5096285;28;19920;-51
2022/08/28 12:59:44;;;;;;;;;;;;;;;41.03;20.51;98434.25;5096325;28;19916;-51
2022/08/28 13:02:25;;;;;;;;;;;;;;;41.20;20.38;98439.97;5096204;28;19912;-51